createdAt,value
2023-05-17T00:01:45.389Z,2.20
2023-05-17T00:04:11.871Z,1.73
2023-05-17T00:06:38.411Z,2.17
2023-05-17T00:09:04.890Z,2.33
2023-05-17T00:11:31.684Z,2.13
2023-05-17T00:13:58.118Z,2.47
2023-05-17T00:16:24.574Z,2.10
2023-05-17T00:18:51.322Z,2.10
2023-05-17T00:21:17.936Z,2.20
2023-05-17T00:23:44.499Z,1.80
2023-05-17T00:26:11.001Z,1.83
2023-05-17T00:28:37.482Z,2.23
2023-05-17T00:31:03.926Z,2.00
2023-05-17T00:33:30.511Z,1.90
2023-05-17T00:35:57.114Z,3.10
2023-05-17T00:38:23.578Z,3.20
2023-05-17T00:40:50.701Z,2.10
2023-05-17T00:43:17.130Z,2.10
2023-05-17T00:45:43.601Z,2.53
2023-05-17T00:48:10.243Z,1.97
2023-05-17T00:50:36.781Z,2.00
2023-05-17T00:53:03.425Z,1.60
2023-05-17T00:55:30.695Z,2.20
2023-05-17T00:57:57.543Z,1.60
2023-05-17T01:00:24.339Z,1.80
2023-05-17T01:02:50.961Z,1.80
2023-05-17T01:05:17.766Z,1.83
2023-05-17T01:07:44.238Z,2.00
2023-05-17T01:10:11.306Z,1.90
2023-05-17T01:12:55.650Z,1.90
2023-05-17T01:15:32.927Z,2.07
2023-05-17T01:18:20.922Z,2.00
2023-05-17T01:20:49.004Z,1.83
2023-05-17T01:23:49.771Z,2.17
2023-05-17T01:26:19.480Z,1.90
2023-05-17T01:28:52.278Z,2.27
2023-05-17T01:31:18.723Z,2.47
2023-05-17T01:33:45.601Z,1.70
2023-05-17T01:36:12.139Z,2.30
2023-05-17T01:38:38.596Z,2.33
2023-05-17T01:41:16.550Z,1.90
2023-05-17T01:43:56.853Z,2.40
2023-05-17T01:46:33.871Z,2.07
2023-05-17T01:49:19.467Z,2.00
2023-05-17T01:51:50.801Z,2.13
2023-05-17T01:54:23.080Z,2.20
2023-05-17T01:57:01.516Z,2.10
2023-05-17T01:59:31.533Z,2.20
2023-05-17T02:02:07.258Z,2.50
2023-05-17T02:04:33.715Z,2.00
2023-05-17T02:07:00.200Z,2.93
2023-05-17T02:09:26.663Z,1.80
2023-05-17T02:11:53.179Z,2.10
2023-05-17T02:14:19.638Z,2.53
2023-05-17T02:16:46.116Z,2.50
2023-05-17T02:19:13.362Z,2.20
2023-05-17T02:21:39.979Z,2.00
2023-05-17T02:24:06.890Z,2.17
2023-05-17T02:26:33.377Z,2.13
2023-05-17T02:29:00.139Z,2.30
2023-05-17T02:31:26.762Z,2.20
2023-05-17T02:33:56.421Z,1.83
2023-05-17T02:36:22.992Z,1.90
2023-05-17T02:38:49.431Z,2.20
2023-05-17T02:41:15.952Z,1.70
2023-05-17T02:43:42.501Z,2.10
2023-05-17T02:46:08.976Z,2.47
2023-05-17T02:48:35.720Z,2.17
2023-05-17T02:51:02.166Z,1.87
2023-05-17T02:53:28.582Z,1.80
2023-05-17T02:55:58.013Z,2.40
2023-05-17T02:58:25.305Z,1.90
2023-05-17T03:00:52.088Z,1.77
2023-05-17T03:03:18.762Z,2.00
2023-05-17T03:05:45.385Z,2.50
2023-05-17T03:08:11.833Z,3.10
2023-05-17T03:10:38.356Z,1.83
2023-05-17T03:13:04.763Z,1.60
2023-05-17T03:15:31.673Z,2.40
2023-05-17T03:17:58.510Z,1.90
2023-05-17T03:20:25.090Z,2.30
2023-05-17T03:22:51.579Z,3.60
2023-05-17T03:25:18.130Z,2.30
2023-05-17T03:27:44.606Z,2.57
2023-05-17T03:30:11.391Z,2.57
2023-05-17T03:32:40.420Z,2.27
2023-05-17T03:35:08.274Z,2.20
2023-05-17T03:37:34.847Z,3.00
2023-05-17T03:40:01.306Z,2.20
2023-05-17T03:42:27.816Z,2.67
2023-05-17T03:44:54.337Z,2.43
2023-05-17T03:47:23.879Z,2.20
2023-05-17T03:49:50.585Z,2.40
2023-05-17T03:52:17.092Z,3.30
2023-05-17T03:54:43.525Z,2.47
2023-05-17T03:57:09.970Z,2.90
2023-05-17T03:59:36.395Z,2.43
2023-05-17T04:02:02.860Z,2.70
2023-05-17T04:04:29.417Z,2.50
2023-05-17T04:06:55.950Z,3.30
2023-05-17T04:09:22.375Z,3.60
2023-05-17T04:11:48.816Z,4.17
2023-05-17T04:14:15.316Z,3.10
2023-05-17T04:16:41.746Z,2.50
2023-05-17T04:19:08.447Z,2.30
2023-05-17T04:21:35.355Z,3.10
2023-05-17T04:24:02.221Z,3.17
2023-05-17T04:26:28.998Z,3.53
2023-05-17T04:28:55.532Z,3.40
2023-05-17T04:31:22.379Z,3.70
2023-05-17T04:33:48.826Z,4.07
2023-05-17T04:36:15.842Z,3.33
2023-05-17T04:38:42.557Z,3.20
2023-05-17T04:41:09.511Z,3.40
2023-05-17T04:43:36.377Z,3.50
2023-05-17T04:46:02.867Z,3.80
2023-05-17T04:48:32.066Z,3.97
2023-05-17T04:51:04.098Z,4.70
2023-05-17T04:53:31.303Z,4.70
2023-05-17T04:55:58.346Z,4.47
2023-05-17T04:58:24.888Z,5.40
2023-05-17T05:00:52.417Z,5.70
2023-05-17T05:03:19.011Z,5.50
2023-05-17T05:05:45.690Z,5.63
2023-05-17T05:08:12.247Z,5.23
2023-05-17T05:10:38.714Z,6.27
2023-05-17T05:13:05.193Z,5.53
2023-05-17T05:15:32.649Z,5.50
2023-05-17T05:17:59.213Z,5.00
2023-05-17T05:20:27.833Z,6.00
2023-05-17T05:22:54.734Z,5.80
2023-05-17T05:25:21.179Z,6.20
2023-05-17T05:27:47.709Z,7.50
2023-05-17T05:30:21.876Z,8.30
2023-05-17T05:32:50.058Z,10.20
2023-05-17T05:35:17.287Z,9.77
2023-05-17T05:37:44.364Z,9.90
2023-05-17T05:40:11.653Z,10.50
2023-05-17T05:42:38.092Z,10.10
2023-05-17T05:45:05.059Z,9.87
2023-05-17T05:47:31.599Z,11.03
2023-05-17T05:49:58.111Z,11.70
2023-05-17T05:52:24.598Z,12.20
2023-05-17T05:54:51.010Z,16.43
2023-05-17T05:57:17.451Z,14.90
2023-05-17T05:59:43.874Z,14.70
2023-05-17T06:02:10.402Z,17.07
2023-05-17T06:04:45.348Z,17.90
2023-05-17T06:07:13.293Z,17.50
2023-05-17T06:09:40.027Z,17.60
2023-05-17T06:12:06.650Z,17.13
2023-05-17T06:14:33.316Z,17.23
2023-05-17T06:16:59.808Z,17.20
2023-05-17T06:19:26.991Z,18.20
2023-05-17T06:21:53.596Z,17.57
2023-05-17T06:24:20.178Z,15.73
2023-05-17T06:26:47.263Z,16.83
2023-05-17T06:29:13.707Z,16.20
2023-05-17T06:31:41.330Z,16.70
2023-05-17T06:34:07.988Z,17.83
2023-05-17T06:36:35.935Z,17.97
2023-05-17T06:39:04.141Z,19.20
2023-05-17T06:41:30.762Z,19.10
2023-05-17T06:43:57.246Z,20.07
2023-05-17T06:46:23.858Z,18.63
2023-05-17T06:48:51.238Z,19.80
2023-05-17T06:51:18.114Z,19.87
2023-05-17T06:53:44.596Z,18.87
2023-05-17T06:56:11.192Z,19.70
2023-05-17T06:58:37.722Z,18.67
2023-05-17T07:01:04.374Z,20.20
2023-05-17T07:03:30.943Z,19.53
2023-05-17T07:05:57.460Z,21.03
2023-05-17T07:08:23.915Z,20.40
2023-05-17T07:10:53.792Z,20.97
2023-05-17T07:13:20.737Z,21.50
2023-05-17T07:15:47.275Z,21.30
2023-05-17T07:18:13.933Z,21.77
2023-05-17T07:20:40.505Z,22.90
2023-05-17T07:23:07.779Z,21.33
2023-05-17T07:25:34.401Z,22.53
2023-05-17T07:28:01.126Z,21.83
2023-05-17T07:30:27.581Z,19.93
2023-05-17T07:32:54.118Z,22.33
2023-05-17T07:35:21.861Z,22.70
2023-05-17T07:37:48.767Z,21.43
2023-05-17T07:40:15.513Z,21.33
2023-05-17T07:42:42.138Z,21.40
2023-05-17T07:45:09.337Z,23.60
2023-05-17T07:47:35.925Z,21.87
2023-05-17T07:50:04.114Z,21.17
2023-05-17T07:52:30.577Z,20.50
2023-05-17T07:54:57.086Z,22.77
2023-05-17T07:57:23.650Z,22.53
2023-05-17T07:59:50.093Z,21.93
2023-05-17T08:02:16.551Z,21.80
2023-05-17T08:04:43.076Z,22.50
2023-05-17T08:07:09.783Z,21.80
2023-05-17T08:09:36.237Z,23.17
2023-05-17T08:12:02.714Z,21.40
2023-05-17T08:14:29.284Z,21.77
2023-05-17T08:16:55.725Z,20.17
2023-05-17T08:19:22.469Z,19.73
2023-05-17T08:21:49.408Z,19.10
2023-05-17T08:24:16.147Z,17.03
2023-05-17T08:26:42.629Z,18.50
2023-05-17T08:29:11.458Z,18.77
2023-05-17T08:31:37.968Z,16.47
2023-05-17T08:34:04.782Z,16.47
2023-05-17T08:36:31.279Z,15.37
2023-05-17T08:38:58.029Z,12.83
2023-05-17T08:41:24.576Z,13.40
2023-05-17T08:43:51.799Z,12.90
2023-05-17T08:46:21.745Z,11.70
2023-05-17T08:48:51.849Z,12.13
2023-05-17T08:51:20.627Z,10.40
2023-05-17T08:53:48.109Z,11.20
2023-05-17T08:56:17.497Z,11.13
2023-05-17T08:58:56.197Z,10.97
2023-05-17T09:01:25.873Z,11.00
2023-05-17T09:03:52.811Z,9.27
2023-05-17T09:06:23.673Z,9.60
2023-05-17T09:08:54.965Z,7.53
2023-05-17T09:11:35.000Z,7.63
2023-05-17T09:14:06.081Z,7.70
2023-05-17T09:16:35.299Z,6.40
2023-05-17T09:19:04.288Z,6.57
2023-05-17T09:21:31.786Z,6.37
2023-05-17T09:24:06.964Z,6.80
2023-05-17T09:26:43.366Z,6.20
2023-05-17T09:29:11.490Z,5.67
2023-05-17T09:31:38.487Z,6.83
2023-05-17T09:34:07.118Z,5.73
2023-05-17T09:36:36.172Z,5.80
2023-05-17T09:39:10.707Z,5.60
2023-05-17T09:41:48.301Z,4.73
2023-05-17T09:44:15.762Z,5.27
2023-05-17T09:46:47.865Z,4.33
2023-05-17T09:49:15.415Z,5.20
2023-05-17T09:51:47.466Z,5.60
2023-05-17T09:54:13.990Z,5.40
2023-05-17T09:56:41.116Z,5.90
2023-05-17T09:59:15.576Z,4.80
2023-05-17T10:01:45.139Z,4.00
2023-05-17T10:04:13.236Z,4.20
2023-05-17T10:09:14.234Z,4.60
2023-05-17T10:11:45.849Z,3.80
2023-05-17T10:14:31.926Z,3.30
2023-05-17T10:16:59.015Z,2.90
2023-05-17T10:19:26.525Z,3.53
2023-05-17T10:21:53.946Z,2.67
2023-05-17T10:24:24.032Z,3.00
2023-05-17T10:26:51.302Z,3.00
2023-05-17T10:29:20.870Z,2.63
2023-05-17T10:31:48.788Z,2.90
2023-05-17T10:34:16.815Z,2.40
2023-05-17T10:36:49.530Z,2.63
2023-05-17T10:39:16.750Z,2.57
2023-05-17T10:41:46.480Z,2.50
2023-05-17T10:44:16.072Z,2.60
2023-05-17T10:46:52.711Z,2.33
2023-05-17T10:49:24.148Z,2.20
2023-05-17T10:51:51.655Z,1.90
2023-05-17T10:54:18.796Z,2.70
2023-05-17T10:56:49.150Z,2.17
2023-05-17T10:59:24.368Z,2.60
2023-05-17T11:01:57.863Z,2.60
2023-05-17T11:04:38.926Z,3.67
2023-05-17T11:07:17.942Z,5.10
2023-05-17T11:09:46.238Z,6.47
2023-05-17T11:12:14.390Z,3.33
2023-05-17T11:14:54.389Z,2.83
2023-05-17T11:17:23.912Z,2.83
2023-05-17T11:20:25.842Z,2.00
2023-05-17T11:22:56.421Z,2.13
2023-05-17T11:25:23.066Z,2.20
2023-05-17T11:27:51.846Z,2.17
2023-05-17T11:30:23.221Z,2.23
2023-05-17T11:32:52.237Z,2.07
2023-05-17T11:35:19.875Z,3.07
2023-05-17T11:37:46.497Z,2.67
2023-05-17T11:40:14.823Z,2.10
2023-05-17T11:42:41.894Z,2.57
2023-05-17T11:45:08.845Z,2.17
2023-05-17T11:47:39.519Z,3.03
2023-05-17T11:50:07.353Z,1.70
2023-05-17T11:52:34.430Z,2.33
2023-05-17T11:55:01.492Z,2.30
2023-05-17T11:57:32.283Z,2.77
2023-05-17T12:00:00.420Z,2.47
2023-05-17T12:02:31.556Z,2.40
2023-05-17T12:04:58.396Z,2.97
2023-05-17T12:07:25.968Z,2.80
2023-05-17T12:09:53.023Z,2.90
2023-05-17T12:12:22.486Z,2.20
2023-05-17T12:14:50.502Z,3.20
2023-05-17T12:17:27.435Z,2.63
2023-05-17T12:19:54.569Z,2.80
2023-05-17T12:22:21.397Z,3.10
2023-05-17T12:24:47.897Z,2.77
2023-05-17T12:27:14.418Z,3.03
2023-05-17T12:29:41.092Z,2.33
2023-05-17T12:32:10.217Z,2.97
2023-05-17T12:34:36.982Z,2.70
2023-05-17T12:37:05.056Z,2.93
2023-05-17T12:39:31.757Z,4.13
2023-05-17T12:41:58.915Z,3.00
2023-05-17T12:44:25.489Z,3.00
2023-05-17T12:46:56.132Z,2.87
2023-05-17T12:49:23.064Z,3.00
2023-05-17T12:51:52.448Z,2.20
2023-05-17T12:54:29.475Z,3.20
2023-05-17T12:56:56.487Z,2.07
2023-05-17T12:59:25.647Z,2.80
2023-05-17T13:01:55.806Z,2.10
2023-05-17T13:04:33.796Z,2.47
2023-05-17T13:07:02.621Z,2.13
2023-05-17T13:09:33.218Z,3.10
2023-05-17T13:12:07.577Z,2.17
2023-05-17T13:14:46.113Z,2.80
2023-05-17T13:17:25.244Z,2.13
2023-05-17T13:19:52.552Z,3.43
2023-05-17T13:22:19.491Z,2.00
2023-05-17T13:24:46.062Z,2.00
2023-05-17T13:27:13.054Z,2.47
2023-05-17T13:29:42.121Z,2.50
2023-05-17T13:32:13.666Z,2.40
2023-05-17T13:34:41.372Z,2.37
2023-05-17T13:37:11.588Z,2.03
2023-05-17T13:39:39.121Z,2.40
2023-05-17T13:42:05.942Z,2.30
2023-05-17T13:44:32.582Z,2.40
2023-05-17T13:46:59.086Z,2.30
2023-05-17T13:49:26.086Z,2.00
2023-05-17T13:51:52.513Z,2.50
2023-05-17T13:54:20.735Z,2.30
2023-05-17T13:56:48.529Z,2.60
2023-05-17T13:59:14.984Z,2.90
2023-05-17T14:01:41.918Z,2.93
2023-05-17T14:04:08.591Z,3.20
2023-05-17T14:06:35.148Z,2.53
2023-05-17T14:09:01.663Z,2.80
2023-05-17T14:11:28.216Z,2.50
2023-05-17T14:13:54.789Z,2.53
2023-05-17T14:16:22.874Z,2.53
2023-05-17T14:18:49.829Z,3.37
2023-05-17T14:21:16.571Z,2.53
2023-05-17T14:23:43.027Z,2.20
2023-05-17T14:26:09.663Z,2.77
2023-05-17T14:28:38.268Z,3.10
2023-05-17T14:31:09.372Z,2.70
2023-05-17T14:33:36.154Z,2.97
2023-05-17T14:36:04.020Z,2.67
2023-05-17T14:38:31.056Z,2.87
2023-05-17T14:40:58.980Z,3.00
2023-05-17T14:43:25.626Z,2.40
2023-05-17T14:45:52.075Z,2.40
2023-05-17T14:48:18.665Z,2.90
2023-05-17T14:50:45.240Z,3.80
2023-05-17T14:53:11.914Z,2.60
2023-05-17T14:55:38.447Z,3.10
2023-05-17T14:58:04.974Z,2.53
2023-05-17T15:00:31.483Z,2.23
2023-05-17T15:02:58.181Z,3.33
2023-05-17T15:05:25.057Z,2.80
2023-05-17T15:07:52.791Z,2.53
2023-05-17T15:10:19.548Z,2.40
2023-05-17T15:12:46.029Z,3.77
2023-05-17T15:15:12.955Z,3.20
2023-05-17T15:17:39.462Z,4.10
2023-05-17T15:20:07.472Z,2.20
2023-05-17T15:22:34.109Z,3.50
2023-05-17T15:25:00.571Z,2.90
2023-05-17T15:27:27.076Z,2.60
2023-05-17T15:29:53.533Z,3.77
2023-05-17T15:32:20.029Z,2.70
2023-05-17T15:34:46.740Z,3.67
2023-05-17T15:37:13.272Z,2.90
2023-05-17T15:39:39.694Z,2.63
2023-05-17T15:42:06.182Z,2.30
2023-05-17T15:44:32.658Z,2.30
2023-05-17T15:47:01.462Z,2.13
2023-05-17T15:49:29.628Z,2.80
2023-05-17T15:51:56.355Z,2.70
2023-05-17T15:54:22.831Z,2.70
2023-05-17T15:56:49.324Z,2.50
2023-05-17T15:59:16.107Z,2.57
2023-05-17T16:01:45.986Z,2.43
2023-05-17T16:04:13.509Z,2.50
2023-05-17T16:06:40.205Z,2.93
2023-05-17T16:09:06.845Z,2.63
2023-05-17T16:11:33.365Z,2.20
2023-05-17T16:13:59.907Z,2.97
2023-05-17T16:16:26.414Z,2.07
2023-05-17T16:18:53.314Z,2.83
2023-05-17T16:21:20.020Z,2.80
2023-05-17T16:23:46.584Z,2.47
2023-05-17T16:26:13.249Z,1.87
2023-05-17T16:28:40.120Z,3.00
2023-05-17T16:31:06.704Z,2.80
2023-05-17T16:33:34.736Z,3.30
2023-05-17T16:36:02.194Z,2.87
2023-05-17T16:38:28.661Z,2.77
2023-05-17T16:40:55.286Z,2.50
2023-05-17T16:43:22.050Z,2.93
2023-05-17T16:45:49.926Z,3.03
2023-05-17T16:48:17.526Z,3.23
2023-05-17T16:50:44.217Z,2.77
2023-05-17T16:53:10.844Z,2.33
2023-05-17T16:55:38.117Z,2.63
2023-05-17T16:58:05.039Z,2.53
2023-05-17T17:00:32.094Z,2.37
2023-05-17T17:02:59.442Z,2.73
2023-05-17T17:05:29.172Z,3.13
2023-05-17T17:07:55.775Z,2.63
2023-05-17T17:10:22.318Z,2.87
2023-05-17T17:12:49.358Z,3.77
2023-05-17T17:15:16.000Z,2.80
2023-05-17T17:17:42.726Z,2.40
2023-05-17T17:20:09.910Z,2.20
2023-05-17T17:22:36.384Z,2.50
2023-05-17T17:25:03.301Z,2.87
2023-05-17T17:27:29.745Z,2.43
2023-05-17T17:29:56.236Z,2.20
2023-05-17T17:32:22.720Z,2.00
2023-05-17T17:34:49.246Z,2.40
2023-05-17T17:37:15.963Z,2.53
2023-05-17T17:39:42.528Z,2.50
2023-05-17T17:42:10.089Z,3.00
2023-05-17T17:44:36.780Z,2.50
2023-05-17T17:47:03.479Z,1.93
2023-05-17T17:49:30.193Z,2.13
2023-05-17T17:51:58.085Z,2.40
2023-05-17T17:54:24.707Z,2.47
2023-05-17T17:56:51.143Z,2.60
2023-05-17T17:59:17.630Z,2.13
2023-05-17T18:01:44.292Z,2.00
2023-05-17T18:04:13.379Z,2.23
2023-05-17T18:06:41.790Z,1.70
2023-05-17T18:09:08.308Z,2.43
2023-05-17T18:11:34.881Z,2.70
2023-05-17T18:14:02.499Z,2.17
2023-05-17T18:16:29.153Z,2.43
2023-05-17T18:18:55.993Z,2.30
2023-05-17T18:21:22.565Z,2.63
2023-05-17T18:23:49.001Z,1.90
2023-05-17T18:26:15.500Z,2.40
2023-05-17T18:28:43.082Z,1.60
2023-05-17T18:31:10.118Z,2.10
2023-05-17T18:33:36.609Z,2.17
2023-05-17T18:36:03.359Z,1.80
2023-05-17T18:38:29.903Z,2.00
2023-05-17T18:40:56.496Z,2.20
2023-05-17T18:43:23.102Z,2.20
2023-05-17T18:45:51.349Z,2.60
2023-05-17T18:48:18.074Z,2.60
2023-05-17T18:50:44.559Z,2.60
2023-05-17T18:53:12.827Z,2.93
2023-05-17T18:55:39.412Z,3.10
2023-05-17T18:58:05.924Z,2.80
2023-05-17T19:00:32.971Z,3.00
2023-05-17T19:02:59.584Z,2.53
2023-05-17T19:05:26.043Z,2.33
2023-05-17T19:07:52.532Z,2.83
2023-05-17T19:10:20.609Z,3.93
2023-05-17T19:12:47.313Z,3.47
2023-05-17T19:15:13.846Z,3.80
2023-05-17T19:17:40.603Z,3.70
2023-05-17T19:20:07.913Z,3.80
2023-05-17T19:22:35.790Z,3.67
2023-05-17T19:25:02.527Z,3.17
2023-05-17T19:27:29.378Z,3.30
2023-05-17T19:29:56.044Z,3.30
2023-05-17T19:32:22.890Z,3.93
2023-05-17T19:34:49.944Z,3.40
2023-05-17T19:37:16.659Z,4.33
2023-05-17T19:39:43.133Z,2.90
2023-05-17T19:42:09.567Z,3.77
2023-05-17T19:44:36.273Z,6.30
2023-05-17T19:47:02.718Z,9.40
2023-05-17T19:49:29.158Z,12.97
2023-05-17T19:52:00.523Z,15.77
2023-05-17T19:54:30.202Z,7.93
2023-05-17T19:56:57.203Z,5.40
2023-05-17T19:59:23.778Z,5.33
2023-05-17T20:01:51.221Z,4.47
2023-05-17T20:04:17.856Z,3.53
2023-05-17T20:06:44.746Z,4.20
2023-05-17T20:09:11.469Z,4.23
2023-05-17T20:11:38.080Z,2.83
2023-05-17T20:14:04.632Z,3.43
2023-05-17T20:16:31.238Z,4.30
2023-05-17T20:18:58.536Z,5.70
2023-05-17T20:21:26.355Z,5.70
2023-05-17T20:23:56.850Z,5.10
2023-05-17T20:26:26.975Z,4.73
2023-05-17T20:28:53.690Z,4.40
2023-05-17T20:31:20.516Z,5.03
2023-05-17T20:33:47.045Z,6.60
2023-05-17T20:36:14.586Z,5.00
2023-05-17T20:38:42.651Z,3.37
2023-05-17T20:41:11.115Z,3.40
2023-05-17T20:43:37.727Z,2.77
2023-05-17T20:46:07.601Z,2.90
2023-05-17T20:48:34.395Z,2.97
2023-05-17T20:51:01.198Z,2.27
2023-05-17T20:53:30.922Z,2.30
2023-05-17T20:55:58.389Z,3.13
2023-05-17T20:58:24.924Z,2.63
2023-05-17T21:00:52.875Z,2.60
2023-05-17T21:03:19.562Z,2.13
2023-05-17T21:05:46.524Z,2.57
2023-05-17T21:08:14.000Z,2.63
2023-05-17T21:10:42.760Z,2.03
2023-05-17T21:13:09.635Z,2.50
2023-05-17T21:15:36.638Z,2.40
2023-05-17T21:18:03.727Z,2.10
2023-05-17T21:20:30.822Z,2.80
2023-05-17T21:22:57.325Z,3.33
2023-05-17T21:25:23.942Z,2.40
2023-05-17T21:27:51.173Z,2.67
2023-05-17T21:30:17.687Z,2.67
2023-05-17T21:32:44.278Z,2.93
2023-05-17T21:35:10.865Z,2.07
2023-05-17T21:37:39.937Z,2.93
2023-05-17T21:40:08.024Z,2.33
2023-05-17T21:42:34.665Z,2.73
2023-05-17T21:45:01.263Z,2.60
2023-05-17T21:47:27.877Z,3.33
2023-05-17T21:49:54.807Z,2.10
2023-05-17T21:52:21.286Z,3.13
2023-05-17T21:54:47.896Z,2.83
2023-05-17T21:57:14.357Z,3.17
2023-05-17T21:59:40.909Z,2.50
2023-05-17T22:02:08.641Z,2.70
2023-05-17T22:04:35.327Z,2.90
2023-05-17T22:07:01.996Z,2.33
2023-05-17T22:09:28.442Z,3.17
2023-05-17T22:11:58.680Z,2.90
2023-05-17T22:14:25.896Z,3.33
2023-05-17T22:16:56.023Z,2.30
2023-05-17T22:19:23.477Z,2.90
2023-05-17T22:21:50.363Z,2.50
2023-05-17T22:24:16.901Z,2.67
2023-05-17T22:26:43.498Z,3.03
2023-05-17T22:29:10.070Z,2.40
2023-05-17T22:31:37.815Z,2.37
2023-05-17T22:34:04.879Z,2.40
2023-05-17T22:36:32.224Z,2.57
2023-05-17T22:38:59.119Z,2.60
2023-05-17T22:41:26.500Z,2.87
2023-05-17T22:43:53.413Z,2.90
2023-05-17T22:46:20.159Z,3.40
2023-05-17T22:48:46.632Z,2.20
2023-05-17T22:51:13.088Z,2.83
2023-05-17T22:53:39.569Z,2.57
2023-05-17T22:56:06.546Z,2.47
2023-05-17T22:58:33.000Z,2.37
2023-05-17T23:00:59.567Z,2.90
2023-05-17T23:03:26.370Z,2.40
2023-05-17T23:06:02.099Z,3.00
2023-05-17T23:08:30.067Z,2.77
2023-05-17T23:10:58.233Z,2.47
2023-05-17T23:13:25.935Z,2.50
2023-05-17T23:15:52.507Z,2.50
2023-05-17T23:18:19.185Z,2.20
2023-05-17T23:20:46.342Z,2.50
2023-05-17T23:23:16.127Z,2.63
2023-05-17T23:25:44.741Z,2.17
2023-05-17T23:28:11.531Z,2.37
2023-05-17T23:30:39.834Z,2.70
2023-05-17T23:33:06.499Z,2.60
2023-05-17T23:35:33.016Z,2.73
2023-05-17T23:37:59.824Z,2.50
2023-05-17T23:40:26.443Z,2.57
2023-05-17T23:42:52.947Z,2.83
2023-05-17T23:45:19.493Z,2.30
2023-05-17T23:47:47.614Z,2.40
2023-05-17T23:50:14.546Z,2.20
2023-05-17T23:52:41.008Z,2.67
2023-05-17T23:55:07.931Z,2.60
2023-05-17T23:57:35.333Z,2.33
